M I D A S
Marine Information and Data Acquisition System
Tripno 724 of the Zeeleeuw from 2004-05-27 06:15:34 to 2004-05-27 13:42:19
Back to CruiseResearch ActivitiesStationsMapUnderway DataData graphs

EquipmentUnitsComment
TimeDGPSUTC
LatitudeDGPSDM.mWGS84
LongitudeDGPSDM.mWGS84
HeadingGyrodeg 
SOGDGPSknotsSpeed over ground
COGDGPSdegCourse over ground
DepthEcho soundermeters200 kHz
Missing or incorrect values are displayed as -999
Navigation data collected by the RV Zeeleeuw from 2004-05-27 06:15:34 to 2004-05-27 13:42:19
                                                                                    Next 1000 lines
Time Latitude Longitude Heading SOG COG Depth
2004-05-27 06:15:44 51°13.597 2°56.096 125.6   60 8.8
2004-05-27 06:15:48 51°13.597 2°56.096 125.5   103 8.8
2004-05-27 06:15:53 51°13.597 2°56.096 125.3   124 8.8
2004-05-27 06:15:59 51°13.597 2°56.096 124.8   203 8.8
2004-05-27 06:16:04 51°13.597 2°56.096 124.3   237 8.9
2004-05-27 06:16:09 51°13.597 2°56.096 124.1   6 8.9
2004-05-27 06:16:14 51°13.598 2°56.096 124   20 8.8
2004-05-27 06:16:18 51°13.598 2°56.096 123.9   352 8.8
2004-05-27 06:16:24 51°13.598 2°56.096 123.9   8 8.8
2004-05-27 06:16:29 51°13.598 2°56.096 123.8   322 8.8
2004-05-27 06:16:32 51°13.598 2°56.096 123.9   354 8.8
2004-05-27 06:16:38 51°13.598 2°56.095 124   282 8.8
2004-05-27 06:16:44 51°13.598 2°56.095 124.1   333 8.8
2004-05-27 06:16:49 51°13.598 2°56.095 124.2   18 8.9
2004-05-27 06:16:53 51°13.598 2°56.095 124.5   243 8.9
2004-05-27 06:16:58 51°13.598 2°56.095 124.7   17 8.8
2004-05-27 06:17:03 51°13.598 2°56.095 124.8   240 8.8
2004-05-27 06:17:09 51°13.598 2°56.095 125   6 8.8
2004-05-27 06:17:14 51°13.598 2°56.095 125.1   248 8.8
2004-05-27 06:17:18 51°13.598 2°56.095 125.2   341 8.8
2004-05-27 06:17:24 51°13.597 2°56.095 125.3   234 8.8
2004-05-27 06:17:29 51°13.597 2°56.095 125.3   307 8.8
2004-05-27 06:17:32 51°13.597 2°56.095 125.3   277 8.8
2004-05-27 06:17:37 51°13.598 2°56.095 125.3   168 8.8
2004-05-27 06:17:44 51°13.598 2°56.095 125.3   147 8.8
2004-05-27 06:17:48 51°13.598 2°56.095 125.3   251 8.8
2004-05-27 06:17:54 51°13.597 2°56.095 125.3   9 8.8
2004-05-27 06:17:56 51°13.597 2°56.095 125.3   354 8.8
2004-05-27 06:18:02 51°13.597 2°56.095 125.3   337 8.8
2004-05-27 06:18:09 51°13.597 2°56.095 125.3   213 8.8
2004-05-27 06:18:13 51°13.597 2°56.095 125.3   21 8.8
2004-05-27 06:18:18 51°13.597 2°56.095 125.3   278 8.8
2004-05-27 06:18:24 51°13.597 2°56.095 125.3   19 8.8
2004-05-27 06:18:29 51°13.597 2°56.095 125.3   230 8.8
2004-05-27 06:18:33 51°13.597 2°56.095 125.3   15 8.8
2004-05-27 06:18:38 51°13.597 2°56.095 125.4   291 8.9
2004-05-27 06:18:44 51°13.597 2°56.095 125.4   288 8.8
2004-05-27 06:18:49 51°13.597 2°56.095 125.5   209 8.8
2004-05-27 06:18:54 51°13.597 2°56.095 125.5   33 8.9
2004-05-27 06:18:59 51°13.597 2°56.095 125.5   225 8.8
2004-05-27 06:19:04 51°13.597 2°56.096 125.5   20 8.8
2004-05-27 06:19:09 51°13.597 2°56.096 125.5   237 8.8
2004-05-27 06:19:14 51°13.597 2°56.096 125.5   46 8.8
2004-05-27 06:19:18 51°13.597 2°56.096 125.5   170 8.8
2004-05-27 06:19:24 51°13.597 2°56.096 125.6   47 8.9
2004-05-27 06:19:29 51°13.597 2°56.096 125.7   350 8.8
2004-05-27 06:19:34 51°13.597 2°56.096 125.7   268 8.9
2004-05-27 06:19:37 51°13.597 2°56.096 125.8   240 8.9
2004-05-27 06:19:44 51°13.597 2°56.096 125.8   49 8.8
2004-05-27 06:19:48 51°13.597 2°56.097 125.7   121 8.9
2004-05-27 06:19:53 51°13.597 2°56.097 124.8 0.1 191 8.8
2004-05-27 06:19:58 51°13.597 2°56.097 123.3 0.1 194 8.9
2004-05-27 06:20:04 51°13.597 2°56.097 122.2 0.1 191 8.8
2004-05-27 06:20:09 51°13.597 2°56.097 120.4 0.1 190 8.8
2004-05-27 06:20:13 51°13.597 2°56.097 119.1 0.1 186 8.8
2004-05-27 06:20:16 51°13.597 2°56.097 117.5 0.1 197 8.8
2004-05-27 06:20:24 51°13.596 2°56.096 115.7 0.1 233 8.9
2004-05-27 06:20:28 51°13.597 2°56.095 114.2 0.5 278 8.9
2004-05-27 06:20:33 51°13.597 2°56.094 113.3 0.8 282 9
2004-05-27 06:20:38 51°13.597 2°56.091 112.9 1.3 287 9.1
2004-05-27 06:20:44 51°13.598 2°56.085 112.9 2 288 9.4
2004-05-27 06:20:49 51°13.6 2°56.08 113.2 2.6 289 10.3
2004-05-27 06:20:54 51°13.601 2°56.073 113.9 2.9 290 -999
2004-05-27 06:20:58 51°13.602 2°56.068 113.9 3.3 291 -999
2004-05-27 06:21:04 51°13.605 2°56.058 113.9 4 290 -999
2004-05-27 06:21:09 51°13.607 2°56.049 113.9 4.3 290 -999
2004-05-27 06:21:14 51°13.609 2°56.04 113.9 4.6 290 -999
2004-05-27 06:21:20 51°13.612 2°56.027 113.9 5 289 -999
2004-05-27 06:21:24 51°13.614 2°56.018 113.9 5.3 289 -999
2004-05-27 06:21:29 51°13.616 2°56.007 114 5.5 289 -999
2004-05-27 06:21:34 51°13.619 2°55.995 114.1 5.7 290 -999
2004-05-27 06:21:40 51°13.622 2°55.98 114.5 5.9 289 -999
2004-05-27 06:21:44 51°13.624 2°55.969 114.7 6.2 290 -999
2004-05-27 06:21:49 51°13.627 2°55.956 115.5 6.3 291 -999
2004-05-27 06:21:54 51°13.631 2°55.943 117.4 6.4 293 -999
2004-05-27 06:21:58 51°13.634 2°55.933 119.8 6.4 295 -999
2004-05-27 06:22:04 51°13.639 2°55.918 122.4 6.4 298 -999
2004-05-27 06:22:09 51°13.644 2°55.906 124.4 6.4 300 -999
2004-05-27 06:22:14 51°13.648 2°55.894 125.9 6.4 302 -999
2004-05-27 06:22:18 51°13.652 2°55.884 126.8 6.5 302 -999
2004-05-27 06:22:24 51°13.658 2°55.87 127.3 6.5 304 -999
2004-05-27 06:22:29 51°13.663 2°55.858 127.5 6.4 305 -999
2004-05-27 06:22:34 51°13.668 2°55.847 127.3 6.1 304 -999
2004-05-27 06:22:38 51°13.671 2°55.838 126.2 5.8 303 -999
2004-05-27 06:22:44 51°13.676 2°55.825 123.7 5.8 300 -999
2004-05-27 06:22:49 51°13.679 2°55.814 120 5.4 296 -999
2004-05-27 06:22:52 51°13.681 2°55.808 116.1 5.1 293 -999
2004-05-27 06:22:59 51°13.684 2°55.794 113.2 4.8 289 -999
2004-05-27 06:23:04 51°13.686 2°55.784 109.2 4.5 285 13.1
2004-05-27 06:23:09 51°13.687 2°55.775 107.1 4.3 285 14.8
2004-05-27 06:23:13 51°13.688 2°55.768 105.5 4 283 15.2
2004-05-27 06:23:17 51°13.689 2°55.762 103.8 3.8 282 15.2
2004-05-27 06:23:24 51°13.691 2°55.752 102.3 3.5 282 15.3
2004-05-27 06:23:29 51°13.692 2°55.746 101 2.9 283 15.3
2004-05-27 06:23:34 51°13.692 2°55.74 100 2.6 282 5.3
2004-05-27 06:23:38 51°13.692 2°55.736 98.8 2.3 280 15.4
2004-05-27 06:23:44 51°13.693 2°55.732 97.3 2 285 4.8
2004-05-27 06:23:49 51°13.694 2°55.729 94.8 1.4 286 -999
2004-05-27 06:23:54 51°13.694 2°55.727 92.1 1.1 289 -999
2004-05-27 06:23:58 51°13.695 2°55.725 90 0.9 292 -999
2004-05-27 06:24:04 51°13.695 2°55.724 87.7 0.5 321 -999
2004-05-27 06:24:09 51°13.696 2°55.724 85.6 0.5 346 -999
2004-05-27 06:24:14 51°13.697 2°55.724 82.4 0.6 9 14.7
2004-05-27 06:24:18 51°13.697 2°55.725 78.5 0.8 27 4.9
2004-05-27 06:24:22 51°13.698 2°55.726 75.2 0.9 35 5
2004-05-27 06:24:29 51°13.7 2°55.728 70.6 1.2 38 15.2
2004-05-27 06:24:33 51°13.701 2°55.73 66 1.4 39 15.1
2004-05-27 06:24:39 51°13.703 2°55.732 61.2 1.6 39 15
2004-05-27 06:24:44 51°13.705 2°55.735 56.3 1.8 37 14.9
2004-05-27 06:24:49 51°13.708 2°55.737 51.4 2 34 14.5
2004-05-27 06:24:53 51°13.71 2°55.739 46.6 2.2 32 14.4
2004-05-27 06:24:58 51°13.713 2°55.742 41.8 2.3 31 14.3
2004-05-27 06:25:03 51°13.716 2°55.744 37 2.4 28 14.1
2004-05-27 06:25:09 51°13.719 2°55.747 32.5 2.6 23 14
2004-05-27 06:25:14 51°13.723 2°55.749 27.8 2.7 21 13.7
2004-05-27 06:25:17 51°13.725 2°55.75 23.1 2.6 17 13.1
2004-05-27 06:25:24 51°13.729 2°55.752 19.3 2.4 15 12.7
2004-05-27 06:25:28 51°13.731 2°55.753 16.7 1.7 15 12.4
2004-05-27 06:25:34 51°13.733 2°55.754 14.3 1.4 15 12.1
2004-05-27 06:25:38 51°13.734 2°55.754 10.2 1.1 17 12
2004-05-27 06:25:42 51°13.735 2°55.755 7.4 0.6 26 11.7
2004-05-27 06:25:49 51°13.735 2°55.755 5.7 0.3 112 11.6
2004-05-27 06:25:53 51°13.734 2°55.756 4.5 0.6 154 11.7
2004-05-27 06:25:58 51°13.733 2°55.756 3.6 1.1 168 12.1
2004-05-27 06:26:04 51°13.73 2°55.757 2.7 1.2 170 12.4
2004-05-27 06:26:09 51°13.728 2°55.758 1.8 1.9 171 -999
2004-05-27 06:26:14 51°13.725 2°55.758 0.8 2 171 -999
2004-05-27 06:26:19 51°13.722 2°55.759 359.4 1.8 170 -999
2004-05-27 06:26:24 51°13.72 2°55.76 358.5 1.5 167 -999
2004-05-27 06:26:29 51°13.719 2°55.76 357.4 1 168 -999
2004-05-27 06:26:34 51°13.719 2°55.761 355.8 0.4 156 -999
2004-05-27 06:26:38 51°13.719 2°55.761 352.8 0.7 348 -999
2004-05-27 06:26:44 51°13.722 2°55.759 348.9 1.1 345 -999
2004-05-27 06:26:49 51°13.725 2°55.757 340.7 2.6 334 -999
2004-05-27 06:26:54 51°13.73 2°55.753 332.9 3.3 331 -999
2004-05-27 06:26:58 51°13.733 2°55.748 326.8 4.3 322 5
2004-05-27 06:27:04 51°13.74 2°55.74 322.8 5.3 320 -999
2004-05-27 06:27:09 51°13.746 2°55.731 322.8 5.8 321 11
2004-05-27 06:27:12 51°13.75 2°55.726 323.3 6.4 319 10.9
2004-05-27 06:27:18 51°13.758 2°55.714 322.7 6.8 318 10.8
2004-05-27 06:27:24 51°13.768 2°55.7 322 7.3 318 10.9
2004-05-27 06:27:29 51°13.776 2°55.689 322.2 8 319 11.1
2004-05-27 06:27:34 51°13.785 2°55.677 322.7 8.3 319 11.1
2004-05-27 06:27:37 51°13.791 2°55.67 323.6 8.5 320 11.6
2004-05-27 06:27:44 51°13.804 2°55.653 324.4 8.7 321 12.2
2004-05-27 06:27:49 51°13.813 2°55.641 325.1 8.8 322 11.7
2004-05-27 06:27:53 51°13.821 2°55.631 326.4 8.9 323 11.7
2004-05-27 06:27:58 51°13.831 2°55.62 327.7 8.9 324 11.6
2004-05-27 06:28:04 51°13.843 2°55.607 328.9 8.8 325 11.2
2004-05-27 06:28:09 51°13.853 2°55.596 330.9 8.7 327 11
2004-05-27 06:28:14 51°13.863 2°55.586 332.2 8.6 328 11.2
2004-05-27 06:28:18 51°13.871 2°55.578 334.1 8.6 329 11.6
2004-05-27 06:28:24 51°13.884 2°55.567 335.5 8.5 330 11.2
2004-05-27 06:28:28 51°13.892 2°55.56 337.1 8.4 333 11.2
2004-05-27 06:28:32 51°13.9 2°55.554 339.2 8.2 335 11.1
2004-05-27 06:28:37 51°13.91 2°55.547 341.2 8 336 11
2004-05-27 06:28:44 51°13.924 2°55.538 342.6 7.8 337 11
2004-05-27 06:28:49 51°13.934 2°55.532 344 7.5 339 11.3
2004-05-27 06:28:54 51°13.943 2°55.527 345.2 7.3 341 11.6
2004-05-27 06:28:56 51°13.947 2°55.525 347.3 7.2 342 11.6
2004-05-27 06:29:04 51°13.962 2°55.518 348.3 7 343 11.9
2004-05-27 06:29:09 51°13.971 2°55.513 349.5 6.8 344 12.6
2004-05-27 06:29:14 51°13.98 2°55.51 350.4 6.7 345 13.1
2004-05-27 06:29:17 51°13.985 2°55.507 351.1 6.6 345 13.1
2004-05-27 06:29:24 51°13.998 2°55.502 351.6 6.5 346 13
2004-05-27 06:29:29 51°14.006 2°55.499 352 6.4 346 12.7
2004-05-27 06:29:33 51°14.013 2°55.496 352.4 6.3 347 12.5
2004-05-27 06:29:38 51°14.022 2°55.493 352.7 6.3 347 12.5
2004-05-27 06:29:44 51°14.032 2°55.49 352.8 6.2 347 12.7
2004-05-27 06:29:49 51°14.04 2°55.487 352.7 6.1 347 12.8
2004-05-27 06:29:54 51°14.048 2°55.483 352 6 346 12.9
2004-05-27 06:29:58 51°14.054 2°55.48 350.5 6.1 344 13
2004-05-27 06:30:04 51°14.065 2°55.474 348.8 6.6 341 13.3
2004-05-27 06:30:08 51°14.072 2°55.469 346.7 7.3 337 13.2
2004-05-27 06:30:12 51°14.08 2°55.464 344.7 7.9 336 13.2
2004-05-27 06:30:17 51°14.091 2°55.455 342.8 8.5 334 13.2
2004-05-27 06:30:24 51°14.107 2°55.443 342 9.1 335 13.1
2004-05-27 06:30:29 51°14.12 2°55.434 342 10 336 13.1
2004-05-27 06:30:34 51°14.133 2°55.425 342.5 10.4 337 13.1
2004-05-27 06:30:38 51°14.144 2°55.417 342.1 10.9 334 13.1
2004-05-27 06:30:44 51°14.16 2°55.403 340 11.2 332 13
2004-05-27 06:30:49 51°14.174 2°55.389 337.4 11.6 328 13.1
2004-05-27 06:30:54 51°14.187 2°55.374 334.7 11.8 325 13
2004-05-27 06:30:58 51°14.198 2°55.361 331.1 12 322 13.1
2004-05-27 06:31:04 51°14.213 2°55.339 326.3 12.3 318 13
2004-05-27 06:31:09 51°14.226 2°55.32 324.3 12.5 318 13
2004-05-27 06:31:13 51°14.236 2°55.305 323.9 12.6 317 13
2004-05-27 06:31:18 51°14.249 2°55.286 323.4 12.7 316 13.1
2004-05-27 06:31:20 51°14.254 2°55.278 322 12.8 315 13.1
2004-05-27 06:31:29 51°14.276 2°55.24 320.4 12.8 312 13.1
2004-05-27 06:31:34 51°14.287 2°55.219 318.7 12.9 310 13.1
2004-05-27 06:31:38 51°14.296 2°55.201 316.3 12.9 309 13.2
2004-05-27 06:31:44 51°14.309 2°55.174 314.9 13 309 13.2
2004-05-27 06:31:49 51°14.321 2°55.151 314.9 13.2 309 13.2
2004-05-27 06:31:53 51°14.33 2°55.134 315.4 13.2 310 12.9
2004-05-27 06:31:58 51°14.342 2°55.111 316.3 13.3 310 12.8
2004-05-27 06:32:02 51°14.352 2°55.093 317.2 13.4 311 12.3
2004-05-27 06:32:08 51°14.367 2°55.065 317.1 13.6 309 12.6
2004-05-27 06:32:13 51°14.378 2°55.042 315.6 13.6 309 13
2004-05-27 06:32:18 51°14.39 2°55.019 314.3 13.7 309 12.8
2004-05-27 06:32:22 51°14.401 2°55.002 317.2 13.7 313 12.4
2004-05-27 06:32:28 51°14.418 2°54.978 320.2 13.5 322 12.3
2004-05-27 06:32:33 51°14.434 2°54.961 324.4 13.5 325 12.3
2004-05-27 06:32:38 51°14.449 2°54.945 328 13.5 327 12.3
2004-05-27 06:32:42 51°14.462 2°54.932 329.2 13.5 327 12
2004-05-27 06:32:48 51°14.48 2°54.912 329 13.5 326 11.9
2004-05-27 06:32:53 51°14.496 2°54.895 328.5 13.5 326 11.9
2004-05-27 06:32:58 51°14.511 2°54.879 328.4 13.4 326 11.6
2004-05-27 06:33:03 51°14.527 2°54.862 327.8 13.4 325 11.8
2004-05-27 06:33:08 51°14.542 2°54.845 327.1 13.5 324 11.7
2004-05-27 06:33:13 51°14.557 2°54.827 326.5 13.5 324 11.8
2004-05-27 06:33:18 51°14.572 2°54.81 326.4 13.5 324 11.7
2004-05-27 06:33:24 51°14.59 2°54.789 325.9 13.5 324 11.7
2004-05-27 06:33:28 51°14.602 2°54.775 325.8 13.2 323 11.6
2004-05-27 06:33:33 51°14.616 2°54.758 325.8 13.3 323 11.3
2004-05-27 06:33:38 51°14.631 2°54.739 325.4 13.3 322 11.6
2004-05-27 06:33:42 51°14.643 2°54.725 325.2 13.3 323 11.5
2004-05-27 06:33:49 51°14.664 2°54.701 325.6 13.4 324 11.6
2004-05-27 06:33:53 51°14.676 2°54.687 326.2 13.5 324 11.6
2004-05-27 06:33:58 51°14.691 2°54.67 326.6 13.4 324 11.6
2004-05-27 06:34:02 51°14.703 2°54.656 326.5 13.4 324 11.6
2004-05-27 06:34:08 51°14.721 2°54.635 326.4 13.4 323 11.6
2004-05-27 06:34:13 51°14.736 2°54.617 326 13.5 323 11.6
2004-05-27 06:34:18 51°14.751 2°54.599 325.7 13.5 323 11.5
2004-05-27 06:34:24 51°14.769 2°54.578 325.8 13.5 324 11.5
2004-05-27 06:34:28 51°14.781 2°54.564 326 13.4 324 11.5
2004-05-27 06:34:33 51°14.796 2°54.546 326.3 13.4 324 11.4
2004-05-27 06:34:38 51°14.811 2°54.528 326.1 13.5 324 11.4
2004-05-27 06:34:43 51°14.826 2°54.511 326.1 13.5 324 11.3
2004-05-27 06:34:49 51°14.845 2°54.489 326.6 13.6 324 11.3
2004-05-27 06:34:53 51°14.857 2°54.476 326.6 13.5 324 11.2
2004-05-27 06:34:58 51°14.872 2°54.459 326.6 13.4 325 11.1
2004-05-27 06:35:04 51°14.891 2°54.438 326.7 13.5 326 11.1
2004-05-27 06:35:08 51°14.903 2°54.425 327.3 13.4 325 10.9
2004-05-27 06:35:13 51°14.918 2°54.408 327.3 13.5 325 10.8
2004-05-27 06:35:18 51°14.934 2°54.391 326.5 13.4 325 10.7
2004-05-27 06:35:24 51°14.952 2°54.37 326.1 13.5 325 10.6
2004-05-27 06:35:28 51°14.964 2°54.356 326.1 13.5 324 10.6
2004-05-27 06:35:33 51°14.979 2°54.338 325.9 13.5 323 10.4
2004-05-27 06:35:38 51°14.994 2°54.32 325.2 13.4 322 10.4
2004-05-27 06:35:42 51°15.005 2°54.306 325 13.4 322 10.4
2004-05-27 06:35:49 51°15.026 2°54.28 324.8 13.5 323 10.5
2004-05-27 06:35:53 51°15.038 2°54.266 325 13.5 323 10.4
2004-05-27 06:35:58 51°15.053 2°54.247 325.2 13.4 323 10.4
2004-05-27 06:36:00 51°15.059 2°54.24 325.6 13.4 323 10.6
2004-05-27 06:36:08 51°15.083 2°54.211 325.9 13.6 322 10.5
2004-05-27 06:36:12 51°15.095 2°54.196 325.8 13.6 323 10.7
2004-05-27 06:36:18 51°15.113 2°54.174 326 13.6 323 10.7
2004-05-27 06:36:22 51°15.125 2°54.16 326.3 13.6 323 10.8
2004-05-27 06:36:29 51°15.146 2°54.134 326.4 13.7 323 10.9
2004-05-27 06:36:33 51°15.158 2°54.12 326.6 13.7 323 11
2004-05-27 06:36:38 51°15.173 2°54.102 326.6 13.8 323 10.9
2004-05-27 06:36:44 51°15.192 2°54.08 326.5 13.8 323 11
2004-05-27 06:36:48 51°15.204 2°54.065 326.4 13.7 323 11.2
2004-05-27 06:36:53 51°15.219 2°54.047 326.4 13.8 324 11.2
2004-05-27 06:36:58 51°15.235 2°54.03 326.5 13.7 325 11.1
2004-05-27 06:37:02 51°15.248 2°54.018 328.6 13.7 329 11.1
2004-05-27 06:37:08 51°15.267 2°54 331.3 13.7 331 11.2
2004-05-27 06:37:13 51°15.285 2°53.986 333.7 13.7 333 11.3
2004-05-27 06:37:18 51°15.302 2°53.973 335.7 13.6 334 11.4
2004-05-27 06:37:21 51°15.312 2°53.965 336.8 13.6 335 11.5
2004-05-27 06:37:28 51°15.336 2°53.948 338.1 13.7 335 11.4
2004-05-27 06:37:33 51°15.354 2°53.935 338.3 13.7 336 11.4
2004-05-27 06:37:38 51°15.371 2°53.922 338.5 13.7 336 11.5
2004-05-27 06:37:42 51°15.385 2°53.913 338.7 13.8 336 11.6
2004-05-27 06:37:48 51°15.406 2°53.898 338.7 13.8 336 11.8
2004-05-27 06:37:54 51°15.427 2°53.883 338.6 13.8 336 11.9
2004-05-27 06:37:58 51°15.441 2°53.872 338.4 13.8 335 12
2004-05-27 06:38:02 51°15.455 2°53.862 338.3 13.9 335 11.9
2004-05-27 06:38:09 51°15.479 2°53.844 338.2 13.9 336 12
2004-05-27 06:38:13 51°15.493 2°53.834 338.2 13.8 336 12.1
2004-05-27 06:38:18 51°15.511 2°53.822 338.3 13.8 335 12.3
2004-05-27 06:38:21 51°15.521 2°53.814 338.2 13.8 335 12.1
2004-05-27 06:38:29 51°15.548 2°53.793 337.7 13.7 334 12.1
2004-05-27 06:38:33 51°15.562 2°53.782 337 13.7 334 12.2
2004-05-27 06:38:38 51°15.58 2°53.769 337.3 13.7 335 12.4
2004-05-27 06:38:42 51°15.594 2°53.758 337.9 13.7 335 12.3
2004-05-27 06:38:48 51°15.614 2°53.743 338.3 13.7 335 12.5
2004-05-27 06:38:53 51°15.631 2°53.73 338.2 13.7 335 12.6
2004-05-27 06:38:58 51°15.649 2°53.717 337.9 13.8 334 12.7
2004-05-27 06:39:02 51°15.663 2°53.707 337.8 13.8 335 12.7
2004-05-27 06:39:08 51°15.684 2°53.691 337.8 13.9 335 12.9
2004-05-27 06:39:13 51°15.701 2°53.678 337.9 13.9 335 12.8
2004-05-27 06:39:18 51°15.718 2°53.665 337.9 13.9 335 13.1
2004-05-27 06:39:24 51°15.739 2°53.649 337.6 13.9 334 13
2004-05-27 06:39:28 51°15.753 2°53.638 337.7 14 335 13
2004-05-27 06:39:33 51°15.771 2°53.625 338.1 14 335 13.2
2004-05-27 06:39:38 51°15.788 2°53.612 338.1 13.9 335 13.1
2004-05-27 06:39:42 51°15.802 2°53.602 337.9 13.9 335 13.2
2004-05-27 06:39:48 51°15.823 2°53.586 337.9 13.9 335 13
2004-05-27 06:39:53 51°15.841 2°53.573 337.9 13.9 335 13.1
2004-05-27 06:39:58 51°15.858 2°53.56 337.6 13.9 335 13.2
2004-05-27 06:40:02 51°15.872 2°53.55 337.7 13.9 335 13.1
2004-05-27 06:40:08 51°15.893 2°53.534 337.5 13.9 335 13.2
2004-05-27 06:40:13 51°15.91 2°53.521 337.5 14 334 13.4
2004-05-27 06:40:18 51°15.928 2°53.507 337.6 13.9 334 13.3
2004-05-27 06:40:22 51°15.942 2°53.497 337.6 13.9 335 13.4
2004-05-27 06:40:29 51°15.966 2°53.478 337.4 13.9 334 13.5
2004-05-27 06:40:32 51°15.976 2°53.47 337.4 13.9 334 13.4
2004-05-27 06:40:38 51°15.997 2°53.454 337.5 14 334 13.5
2004-05-27 06:40:43 51°16.015 2°53.44 337.6 14 334 13.5
2004-05-27 06:40:48 51°16.032 2°53.427 337.5 13.9 334 13.5
2004-05-27 06:40:53 51°16.05 2°53.413 337.2 14 334 13.6
2004-05-27 06:40:58 51°16.067 2°53.4 337.6 14 334 13.8
2004-05-27 06:41:02 51°16.081 2°53.389 337.7 14 335 13.8
2004-05-27 06:41:08 51°16.102 2°53.373 337.7 13.9 334 13.8
2004-05-27 06:41:12 51°16.116 2°53.362 337.5 14 334 13.7
2004-05-27 06:41:18 51°16.137 2°53.346 337.4 14 334 13.8
2004-05-27 06:41:23 51°16.155 2°53.333 337.5 14 335 13.8
2004-05-27 06:41:28 51°16.173 2°53.322 338.9 13.9 339 13.8
2004-05-27 06:41:33 51°16.191 2°53.312 341.8 13.9 341 13.7
2004-05-27 06:41:38 51°16.21 2°53.303 344.5 14 344 13.8
2004-05-27 06:41:42 51°16.225 2°53.297 346.9 14.1 345 13.8
2004-05-27 06:41:48 51°16.248 2°53.288 349.1 13.9 347 13.8
2004-05-27 06:41:53 51°16.267 2°53.282 350.4 14 348 14
2004-05-27 06:41:58 51°16.286 2°53.276 351.3 14 348 13.9
2004-05-27 06:42:03 51°16.305 2°53.27 352 14 349 13.9
2004-05-27 06:42:08 51°16.324 2°53.264 352.2 14 349 13.9
2004-05-27 06:42:13 51°16.343 2°53.258 352.2 14.1 349 13.9
2004-05-27 06:42:18 51°16.362 2°53.251 352 14.2 348 14
2004-05-27 06:42:22 51°16.377 2°53.246 351.9 14 348 13.8
2004-05-27 06:42:28 51°16.4 2°53.239 351.6 13.9 348 14
2004-05-27 06:42:32 51°16.415 2°53.234 351.5 14 348 14
2004-05-27 06:42:38 51°16.438 2°53.226 351.4 14.1 348 13.8
2004-05-27 06:42:44 51°16.461 2°53.219 351.8 14.1 349 14
2004-05-27 06:42:49 51°16.48 2°53.213 352 14.1 349 14.1
2004-05-27 06:42:52 51°16.492 2°53.209 351.8 14.1 349 14
2004-05-27 06:42:58 51°16.515 2°53.202 351.6 14.1 349 13.8
2004-05-27 06:43:03 51°16.534 2°53.196 351.5 14.1 348 13.7
2004-05-27 06:43:08 51°16.553 2°53.19 351.4 14.1 349 13.6
2004-05-27 06:43:13 51°16.572 2°53.183 351.4 14.1 348 13.5
2004-05-27 06:43:18 51°16.592 2°53.176 351 14.1 348 13.6
2004-05-27 06:43:24 51°16.615 2°53.169 351.3 14 350 13.3
2004-05-27 06:43:28 51°16.63 2°53.165 352.6 14.2 351 13.3
2004-05-27 06:43:32 51°16.646 2°53.162 353.4 14.1 352 13.2
2004-05-27 06:43:38 51°16.669 2°53.157 354.5 14.1 352 13.3
2004-05-27 06:43:44 51°16.692 2°53.152 355.2 14.2 353 12.9
2004-05-27 06:43:48 51°16.708 2°53.15 355.7 14.1 353 12.9
2004-05-27 06:43:53 51°16.727 2°53.146 356.2 14.2 353 13
2004-05-27 06:43:58 51°16.747 2°53.142 356.2 14.2 353 12.9
2004-05-27 06:44:01 51°16.758 2°53.14 356.1 14.2 353 12.9
2004-05-27 06:44:08 51°16.786 2°53.134 355.9 14.1 352 12.6
2004-05-27 06:44:13 51°16.805 2°53.13 355.4 14.1 352 12.6
2004-05-27 06:44:18 51°16.824 2°53.126 354.9 14 352 12.3
2004-05-27 06:44:20 51°16.832 2°53.124 354.8 14.1 352 11.5
2004-05-27 06:44:28 51°16.863 2°53.117 355 14 352 10.8
2004-05-27 06:44:32 51°16.878 2°53.114 355.3 14 352 10.3
2004-05-27 06:44:36 51°16.893 2°53.11 355 13.9 352 10.1
2004-05-27 06:44:43 51°16.92 2°53.104 354.6 13.8 352 10.2
2004-05-27 06:44:49 51°16.943 2°53.098 354.5 14.1 352 10.1
2004-05-27 06:44:53 51°16.959 2°53.095 354.4 14.1 352 10.1
2004-05-27 06:44:58 51°16.978 2°53.091 354.4 14.2 352 10
2004-05-27 06:45:04 51°17.002 2°53.087 355.8 14.2 354 10
2004-05-27 06:45:08 51°17.018 2°53.086 357.9 14.3 357 10.2
2004-05-27 06:45:13 51°17.037 2°53.085 0.5 14.3 359 10.2
2004-05-27 06:45:18 51°17.057 2°53.085 1.9 14.5   10.2
2004-05-27 06:45:22 51°17.073 2°53.085 3.3 14.4   10.4
2004-05-27 06:45:28 51°17.097 2°53.086 4.3 14.6 2 10.4
2004-05-27 06:45:33 51°17.118 2°53.088 4.8 14.6 3 10.6
2004-05-27 06:45:38 51°17.138 2°53.092 7.6 14.6 8 10.8
2004-05-27 06:45:43 51°17.158 2°53.097 11.2 14.7 10 10.7
2004-05-27 06:45:48 51°17.178 2°53.106 14.8 14.6 16 10.8
2004-05-27 06:45:53 51°17.197 2°53.116 19.4 14.7 18 10.7
2004-05-27 06:45:58 51°17.216 2°53.128 23 14.6 20 10.8
2004-05-27 06:46:02 51°17.231 2°53.138 25.4 14.7 23 10.8
2004-05-27 06:46:08 51°17.253 2°53.154 28.4 14.7 26 10.6
2004-05-27 06:46:13 51°17.271 2°53.169 30.4 14.7 26 10.9
2004-05-27 06:46:16 51°17.282 2°53.177 31.1 14.7 27 11
2004-05-27 06:46:22 51°17.304 2°53.195 32 14.8 26 10.7
2004-05-27 06:46:28 51°17.326 2°53.213 32.2 14.7 27 11
2004-05-27 06:46:32 51°17.34 2°53.225 32.3 14.7 27 11.3
2004-05-27 06:46:38 51°17.362 2°53.242 32.2 14.8 27 10.9
2004-05-27 06:46:43 51°17.381 2°53.257 31.9 14.8 26 11
2004-05-27 06:46:49 51°17.403 2°53.274 31.3 14.7 26 11.1
2004-05-27 06:46:52 51°17.414 2°53.283 31.4 14.7 26 11
2004-05-27 06:46:58 51°17.436 2°53.3 31.3 14.7 26 11.2
2004-05-27 06:47:02 51°17.451 2°53.311 31.2 14.7 26 11.1
2004-05-27 06:47:08 51°17.473 2°53.328 31.7 14.7 25 11.2
2004-05-27 06:47:13 51°17.491 2°53.342 31.2 14.7 26 11.2
2004-05-27 06:47:18 51°17.51 2°53.356 31.2 14.7 26 11.2
2004-05-27 06:47:22 51°17.524 2°53.367 30.4 14.7 24 11.2
2004-05-27 06:47:28 51°17.547 2°53.383 30.7 14.7 25 11.1
2004-05-27 06:47:33 51°17.565 2°53.397 30.8 14.7 25 11.5
2004-05-27 06:47:38 51°17.584 2°53.411 30.6 14.8 25 11.2
2004-05-27 06:47:41 51°17.595 2°53.419 30.3 14.7 25 11.3
2004-05-27 06:47:48 51°17.621 2°53.439 30.5 14.7 25 11.2
2004-05-27 06:47:52 51°17.636 2°53.45 30.4 14.7 25 11.2
2004-05-27 06:47:58 51°17.658 2°53.467 30.4 14.6 25 11.3
2004-05-27 06:48:02 51°17.672 2°53.477 30.1 14.7 24 11.1
2004-05-27 06:48:08 51°17.695 2°53.494 30.2 14.7 25 11.5
2004-05-27 06:48:12 51°17.709 2°53.505 30.3 14.7 25 11.5
2004-05-27 06:48:18 51°17.732 2°53.521 30.1 14.8 25 11.5
2004-05-27 06:48:23 51°17.75 2°53.535 30.2 14.8 25 11.3
2004-05-27 06:48:28 51°17.769 2°53.549 30.1 14.7 25 11.2
2004-05-27 06:48:33 51°17.787 2°53.562 29.9 14.7 24 11.6
2004-05-27 06:48:38 51°17.806 2°53.576 29.9 14.8 24 11.5
2004-05-27 06:48:43 51°17.824 2°53.589 29.8 14.7 25 11.4
2004-05-27 06:48:48 51°17.843 2°53.603 30 14.7 25 11.6
2004-05-27 06:48:53 51°17.861 2°53.618 30.4 14.6 26 11.6
2004-05-27 06:48:58 51°17.88 2°53.632 31.5 14.6 27 11.7
2004-05-27 06:49:03 51°17.898 2°53.647 32 14.7 27 11.6
2004-05-27 06:49:08 51°17.915 2°53.662 32.5 14.7 27 11.5
2004-05-27 06:49:13 51°17.933 2°53.677 32.9 14.7 27 11.7
2004-05-27 06:49:18 51°17.951 2°53.692 32.8 14.7 27 11.7
2004-05-27 06:49:21 51°17.962 2°53.7 32.6 14.7 27 11.8
2004-05-27 06:49:28 51°17.988 2°53.721 32.6 14.7 27 11.8
2004-05-27 06:49:33 51°18.005 2°53.736 32.6 14.7 28 11.7
2004-05-27 06:49:36 51°18.016 2°53.745 33 14.8 27 11.7
2004-05-27 06:49:43 51°18.042 2°53.767 32.9 14.8 28 11.8
2004-05-27 06:49:48 51°18.06 2°53.782 33.1 14.8 28 11.9
2004-05-27 06:49:53 51°18.078 2°53.798 33.5 14.8 29 11.9
2004-05-27 06:49:55 51°18.085 2°53.805 35 14.7 30 11.8
2004-05-27 06:50:03 51°18.112 2°53.833 37.1 14.7 32 11.8
2004-05-27 06:50:08 51°18.129 2°53.85 38.2 14.8 33 11.9
2004-05-27 06:50:13 51°18.146 2°53.869 39.1 14.7 35 11.8
2004-05-27 06:50:18 51°18.163 2°53.888 40.4 14.7 35 12
2004-05-27 06:50:24 51°18.183 2°53.911 41.1 14.7 35 11.9
2004-05-27 06:50:28 51°18.196 2°53.926 41.3 14.7 36 11.9
2004-05-27 06:50:33 51°18.212 2°53.946 42 14.7 38 12
2004-05-27 06:50:38 51°18.228 2°53.967 43.9 14.7 40 11.9
2004-05-27 06:50:44 51°18.246 2°53.992 45.6 14.7 41 11.9
2004-05-27 06:50:46 51°18.252 2°54.001 47.1 14.7 42 12
2004-05-27 06:50:53 51°18.274 2°54.031 48 14.6 42 12
2004-05-27 06:50:56 51°18.282 2°54.045 48.6 14.6 43 12
2004-05-27 06:51:03 51°18.303 2°54.076 49.3 14.8 43 12.2
2004-05-27 06:51:08 51°18.318 2°54.098 49.3 14.7 44 12
2004-05-27 06:51:13 51°18.333 2°54.121 49.7 14.7 43 12.1
2004-05-27 06:51:15 51°18.339 2°54.129 49.7 14.8 43 12.1
2004-05-27 06:51:23 51°18.363 2°54.165 49.3 14.7 43 12
2004-05-27 06:51:28 51°18.378 2°54.187 49.2 14.6 43 12.2
2004-05-27 06:51:33 51°18.393 2°54.209 49 14.7 43 12.1
2004-05-27 06:51:38 51°18.408 2°54.231 48.4 14.6 42 12.1
2004-05-27 06:51:42 51°18.42 2°54.248 48.5 14.6 42 12.2
2004-05-27 06:51:49 51°18.44 2°54.279 48.9 14.6 43 12
2004-05-27 06:51:52 51°18.449 2°54.293 49.5 14.6 43 12.1
2004-05-27 06:51:58 51°18.467 2°54.319 49.1 14.7 42 12.1
2004-05-27 06:52:04 51°18.486 2°54.345 48.5 14.7 42 12.2
2004-05-27 06:52:09 51°18.501 2°54.367 47.9 14.7 41 12.4
2004-05-27 06:52:12 51°18.51 2°54.38 48 14.7 43 12.3
2004-05-27 06:52:18 51°18.528 2°54.406 48.3 14.6 42 12.2
2004-05-27 06:52:24 51°18.546 2°54.432 48.3 14.7 42 12.3
2004-05-27 06:52:28 51°18.558 2°54.45 48.3 14.6 42 12.4
2004-05-27 06:52:33 51°18.573 2°54.472 48.7 14.6 43 12.3
2004-05-27 06:52:38 51°18.588 2°54.494 49 14.7 42 12.3
2004-05-27 06:52:44 51°18.607 2°54.52 48.6 14.8 42 12.4
2004-05-27 06:52:48 51°18.619 2°54.538 48 14.8 41 12.5
2004-05-27 06:52:53 51°18.634 2°54.559 47.4 14.8 42 12.6
2004-05-27 06:52:58 51°18.65 2°54.581 47.3 14.8 42 12.5
2004-05-27 06:53:01 51°18.659 2°54.594 47.6 14.8 42 12.6
2004-05-27 06:53:09 51°18.683 2°54.629 48.3 14.8 42 12.5
2004-05-27 06:53:13 51°18.695 2°54.647 48.7 14.8 42 12.7
2004-05-27 06:53:16 51°18.704 2°54.66 48.6 14.8 42 12.5
2004-05-27 06:53:23 51°18.726 2°54.691 48.1 14.7 42 12.6
2004-05-27 06:53:28 51°18.741 2°54.713 47.5 14.7 41 12.5
2004-05-27 06:53:33 51°18.756 2°54.734 47.4 14.7 42 12.7
2004-05-27 06:53:38 51°18.772 2°54.756 47.7 14.8 42 12.7
2004-05-27 06:53:42 51°18.784 2°54.774 47.6 14.8 42 12.6
2004-05-27 06:53:48 51°18.802 2°54.8 47.7 14.8 42 12.7
2004-05-27 06:53:53 51°18.818 2°54.822 47.9 14.8 42 12.8
2004-05-27 06:53:58 51°18.833 2°54.844 48.1 14.8 42 12.8
2004-05-27 06:54:01 51°18.842 2°54.857 48.4 14.7 43 12.7
2004-05-27 06:54:08 51°18.863 2°54.888 48.6 14.8 43 12.6
2004-05-27 06:54:13 51°18.878 2°54.91 48.2 14.7 42 12.8
2004-05-27 06:54:18 51°18.893 2°54.932 48.1 14.7 41 12.8
2004-05-27 06:54:24 51°18.911 2°54.957 47.5 14.6 41 12.6
2004-05-27 06:54:28 51°18.924 2°54.974 47.5 14.6 41 12.7
2004-05-27 06:54:32 51°18.936 2°54.992 47.6 14.6 42 12.8
2004-05-27 06:54:38 51°18.954 2°55.018 47.9 14.6 42 12.8
2004-05-27 06:54:43 51°18.969 2°55.039 47.5 14.6 41 12.7
2004-05-27 06:54:49 51°18.988 2°55.065 47.5 14.7 41 12.9
2004-05-27 06:54:53 51°19 2°55.082 47.2 14.6 42 12.9
2004-05-27 06:54:58 51°19.015 2°55.103 47.2 14.6 41 12.7
2004-05-27 06:55:03 51°19.03 2°55.125 47.3 14.6 42 12.7
2004-05-27 06:55:08 51°19.045 2°55.147 47.7 14.7 42 12.8
2004-05-27 06:55:12 51°19.058 2°55.164 47.9 14.7 42 12.9
2004-05-27 06:55:18 51°19.076 2°55.19 47.7 14.8 42 12.9
2004-05-27 06:55:24 51°19.095 2°55.216 47.3 14.6 41 12.9
2004-05-27 06:55:28 51°19.107 2°55.233 46.9 14.6 41 12.8
2004-05-27 06:55:32 51°19.119 2°55.25 47.1 14.7 42 12.9
2004-05-27 06:55:38 51°19.138 2°55.276 47.7 14.8 42 13
2004-05-27 06:55:43 51°19.153 2°55.298 47.2 14.7 42 13
2004-05-27 06:55:48 51°19.168 2°55.32 47.6 14.6 42 13
2004-05-27 06:55:53 51°19.183 2°55.341 47.7 14.5 42 12.9
2004-05-27 06:55:58 51°19.198 2°55.363 47.9 14.5 42 12.8
2004-05-27 06:56:04 51°19.216 2°55.389 47.3 14.6 42 13.1
2004-05-27 06:56:08 51°19.228 2°55.406 47.7 14.5 41 13
2004-05-27 06:56:13 51°19.243 2°55.427 47.4 14.6 42 13
2004-05-27 06:56:18 51°19.258 2°55.448 46.9 14.5 41 13
2004-05-27 06:56:24 51°19.277 2°55.474 47.1 14.6 42 13.1
2004-05-27 06:56:26 51°19.283 2°55.482 47.3 14.6 41 13.1
2004-05-27 06:56:33 51°19.304 2°55.513 47.1 14.6 42 13.1
2004-05-27 06:56:36 51°19.313 2°55.525 47.2 14.6 41 13.1
2004-05-27 06:56:44 51°19.337 2°55.56 47.2 14.6 42 13.1
2004-05-27 06:56:48 51°19.349 2°55.577 47.2 14.6 41 13.2
2004-05-27 06:56:53 51°19.365 2°55.598 47.2 14.6 41 13.3
2004-05-27 06:56:58 51°19.38 2°55.62 47.6 14.7 42 13
2004-05-27 06:57:03 51°19.395 2°55.641 47.6 14.5 41 13
2004-05-27 06:57:08 51°19.41 2°55.663 47.5 14.6 41 13.1
2004-05-27 06:57:12 51°19.422 2°55.68 47.4 14.7 42 13.2
2004-05-27 06:57:18 51°19.44 2°55.707 47.9 14.6 44 13.2
2004-05-27 06:57:24 51°19.456 2°55.735 50 14.6 46 13.1
2004-05-27 06:57:28 51°19.467 2°55.754 51.8 14.5 48 13.1
2004-05-27 06:57:33 51°19.48 2°55.778 53.6 14.5 49 13.1
2004-05-27 06:57:38 51°19.493 2°55.803 55 14.5 49 13
2004-05-27 06:57:41 51°19.501 2°55.818 56.4 14.6 51 13.1
2004-05-27 06:57:48 51°19.518 2°55.853 56.8 14.6 52 13.1
2004-05-27 06:57:53 51°19.531 2°55.879 57.4 14.6 52 13.1
2004-05-27 06:57:58 51°19.543 2°55.904 57.9 14.5 51 13
2004-05-27 06:58:02 51°19.553 2°55.924 58 14.5 52 13.1
2004-05-27 06:58:06 51°19.563 2°55.944 57.9 14.5 52 13.1
2004-05-27 06:58:13 51°19.581 2°55.98 57.4 14.4 52 12.9
2004-05-27 06:58:16 51°19.588 2°55.995 57.7 14.4 51 12.9
2004-05-27 06:58:21 51°19.601 2°56.02 57.3 14.5 51 13.1
2004-05-27 06:58:29 51°19.621 2°56.06 57.2 14.5 51 13
2004-05-27 06:58:33 51°19.631 2°56.08 57.3 14.6 51 13.2
2004-05-27 06:58:38 51°19.644 2°56.105 56.9 14.6 51 13.2
2004-05-27 06:58:42 51°19.654 2°56.125 56.6 14.6 50 13
2004-05-27 06:58:48 51°19.67 2°56.155 57.2 14.6 50 13.1
2004-05-27 06:58:53 51°19.682 2°56.18 56.5 14.5 51 13
2004-05-27 06:58:58 51°19.695 2°56.205 57.3 14.5 51 13.1
2004-05-27 06:59:03 51°19.708 2°56.23 57 14.6 50 13
2004-05-27 06:59:08 51°19.72 2°56.255 57.2 14.6 50 13
2004-05-27 06:59:13 51°19.733 2°56.28 56.6 14.6 51 13.1
2004-05-27 06:59:18 51°19.746 2°56.306 56.6 14.6 50 13.1
2004-05-27 06:59:21 51°19.754 2°56.32 56.6 14.6 50 13.2
2004-05-27 06:59:29 51°19.774 2°56.361 56.9 14.7 50 13.2
2004-05-27 06:59:33 51°19.785 2°56.381 56.7 14.7 51 13.3
2004-05-27 06:59:38 51°19.797 2°56.406 56.6 14.6 51 13.2
2004-05-27 06:59:42 51°19.808 2°56.426 56.3 14.5 50 13.2
2004-05-27 06:59:46 51°19.817 2°56.446 56.7 14.5 49 13.1
2004-05-27 06:59:52 51°19.833 2°56.476 56.2 14.6 51 13
2004-05-27 06:59:57 51°19.846 2°56.5 56.6 14.6 50 13
2004-05-27 07:00:03 51°19.861 2°56.53 56.1 14.5 51 13.1
2004-05-27 07:00:08 51°19.874 2°56.555 56.6 14.6 50 13.2
2004-05-27 07:00:13 51°19.887 2°56.58 56.3 14.6 51 13.3
2004-05-27 07:00:18 51°19.9 2°56.605 57 14.6 51 13.2
2004-05-27 07:00:24 51°19.915 2°56.635 56.6 14.6 50 13.4
2004-05-27 07:00:28 51°19.926 2°56.655 56.4 14.6 50 13.4
2004-05-27 07:00:33 51°19.938 2°56.68 56.3 14.6 52 13.4
2004-05-27 07:00:38 51°19.951 2°56.706 56.6 14.6 51 13.4
2004-05-27 07:00:43 51°19.964 2°56.73 56.5 14.4 51 13.3
2004-05-27 07:00:48 51°19.977 2°56.756 56.7 14.7 50 13.3
2004-05-27 07:00:53 51°19.99 2°56.78 56.1 14.7 50 13.2
2004-05-27 07:00:58 51°20.003 2°56.805 55.5 14.6 51 13.3
2004-05-27 07:01:04 51°20.018 2°56.835 56.2 14.6 51 13.3
2004-05-27 07:01:09 51°20.031 2°56.86 56.1 14.6 52 13.4
2004-05-27 07:01:12 51°20.039 2°56.875 56.7 14.6 50 13.3
2004-05-27 07:01:18 51°20.055 2°56.905 56.4 14.7 51 13.4
2004-05-27 07:01:24 51°20.07 2°56.934 56.3 14.7 51 13.4
2004-05-27 07:01:28 51°20.08 2°56.954 56 14.6 51 13.3
2004-05-27 07:01:33 51°20.093 2°56.979 56.6 14.7 50 13.4
2004-05-27 07:01:38 51°20.106 2°57.005 56.5 14.7 50 13.4
2004-05-27 07:01:44 51°20.122 2°57.035 56.1 14.7 50 13.4
2004-05-27 07:01:47 51°20.129 2°57.05 56.6 14.6 51 13.3
2004-05-27 07:01:53 51°20.145 2°57.08 56.6 14.6 50 13.3
2004-05-27 07:01:58 51°20.158 2°57.105 56.5 14.6 52 13.4
2004-05-27 07:02:02 51°20.168 2°57.125 56.8 14.6 51 13.4
2004-05-27 07:02:08 51°20.183 2°57.155 56.6 14.6 51 13.3
2004-05-27 07:02:13 51°20.196 2°57.18 56.1 14.6 51 13.2
2004-05-27 07:02:18 51°20.209 2°57.206 56.2 14.6 51 13.6
2004-05-27 07:02:22 51°20.22 2°57.225 56 14.6 51 13.4
2004-05-27 07:02:28 51°20.235 2°57.255 56.6 14.5 50 13.5
2004-05-27 07:02:33 51°20.247 2°57.281 56.6 14.5 52 13.3
2004-05-27 07:02:38 51°20.26 2°57.305 56.8 14.6 50 13.3
2004-05-27 07:02:43 51°20.273 2°57.331 56.8 14.6 51 13.3
2004-05-27 07:02:48 51°20.286 2°57.357 56.8 14.6 51 13.5
2004-05-27 07:02:53 51°20.299 2°57.381 56.7 14.6 51 13.4
2004-05-27 07:02:58 51°20.311 2°57.407 56.5 14.6 51 13.5
2004-05-27 07:03:02 51°20.322 2°57.426 56.5 14.6 51 13.4
2004-05-27 07:03:09 51°20.34 2°57.462 56.3 14.7 50 13.4
2004-05-27 07:03:12 51°20.348 2°57.476 56 14.7 50 13.3
2004-05-27 07:03:17 51°20.361 2°57.501 55.9 14.6 51 13.4
2004-05-27 07:03:24 51°20.379 2°57.537 56.5 14.7 51 13.5
2004-05-27 07:03:29 51°20.392 2°57.562 56.3 14.7 51 13.4
2004-05-27 07:03:32 51°20.4 2°57.577 56.3 14.8 50 13.4
2004-05-27 07:03:38 51°20.415 2°57.607 55.9 14.7 50 13.4
2004-05-27 07:03:42 51°20.426 2°57.628 55.9 14.7 51 13.5
2004-05-27 07:03:48 51°20.441 2°57.657 56.4 14.6 51 13.4
2004-05-27 07:03:53 51°20.454 2°57.683 56.4 14.6 51 13.3
2004-05-27 07:03:58 51°20.467 2°57.708 56.6 14.6 51 13.3
2004-05-27 07:04:01 51°20.475 2°57.723 56.6 14.7 51 13.4
2004-05-27 07:04:09 51°20.495 2°57.764 56.4 14.7 51 13.4
2004-05-27 07:04:12 51°20.503 2°57.778 56.1 14.6 50 13.4
2004-05-27 07:04:18 51°20.518 2°57.809 55.8 14.6 52 13.3
2004-05-27 07:04:22 51°20.53 2°57.828 56.2 14.7 49 13.3
2004-05-27 07:04:29 51°20.547 2°57.864 56 14.6 52 13.4
2004-05-27 07:04:33 51°20.558 2°57.884 56.8 14.6 50 13.3
2004-05-27 07:04:38 51°20.57 2°57.909 56.4 14.8 51 13.2
2004-05-27 07:04:42 51°20.581 2°57.929 56.1 14.5 50 13.3
2004-05-27 07:04:49 51°20.599 2°57.964 55.7 14.5 51 13.2
2004-05-27 07:04:53 51°20.609 2°57.984 56.2 14.5 50 13.2
2004-05-27 07:04:58 51°20.622 2°58.009 56.2 14.6 51 13.2
2004-05-27 07:05:03 51°20.635 2°58.034 56.5 14.6 51 13.3
2004-05-27 07:05:08 51°20.648 2°58.059 56 14.6 51 13.4
2004-05-27 07:05:13 51°20.661 2°58.084 56.3 14.7 51 13.3
2004-05-27 07:05:16 51°20.668 2°58.099 56.4 14.7 51 13.4
2004-05-27 07:05:23 51°20.686 2°58.134 56.4 14.4 51 13.2
2004-05-27 07:05:29 51°20.702 2°58.164 56.6 14.6 50 13.1
2004-05-27 07:05:33 51°20.712 2°58.184 56.3 14.6 51 13.2
2004-05-27 07:05:38 51°20.724 2°58.209 56.6 14.4 51 13.4
2004-05-27 07:05:42 51°20.735 2°58.23 56.7 14.6 51 13.2
2004-05-27 07:05:48 51°20.75 2°58.259 56.3 14.5 50 13.3
2004-05-27 07:05:52 51°20.76 2°58.279 56 14.5 51 13.2
2004-05-27 07:05:58 51°20.775 2°58.309 56.6 14.4 51 13.2
2004-05-27 07:06:03 51°20.788 2°58.334 57 14.5 51 13.4
2004-05-27 07:06:08 51°20.8 2°58.36 57.1 14.5 51 13.3
2004-05-27 07:06:12 51°20.811 2°58.38 57.1 14.5 50 13.2
2004-05-27 07:06:17 51°20.823 2°58.404 56.4 14.5 51 13.2
2004-05-27 07:06:21 51°20.834 2°58.424 56.3 14.5 50 13.3
2004-05-27 07:06:29 51°20.854 2°58.464 56.3 14.5 51 13.3
2004-05-27 07:06:33 51°20.864 2°58.484 56.3 14.6 50 13.3
2004-05-27 07:06:38 51°20.877 2°58.509 56.3 14.6 51 13.3
2004-05-27 07:06:42 51°20.888 2°58.529 56.3 14.7 50 13.2
2004-05-27 07:06:49 51°20.906 2°58.563 55.8 14.5 50 13.1
2004-05-27 07:06:53 51°20.916 2°58.584 55.8 14.6 51 13.3
2004-05-27 07:06:57 51°20.926 2°58.604 56.3 14.7 51 13.3
2004-05-27 07:07:04 51°20.944 2°58.639 56.1 14.7 51 13.2
2004-05-27 07:07:09 51°20.957 2°58.665 57 14.5 53 13
2004-05-27 07:07:13 51°20.967 2°58.685 57.7 14.5 53 13
2004-05-27 07:07:18 51°20.978 2°58.712 59.5 14.6 55 13.1
2004-05-27 07:07:21 51°20.986 2°58.727 59.8 14.6 53 13.1
2004-05-27 07:07:28 51°21.002 2°58.765 60.5 14.7 55 13.1
2004-05-27 07:07:33 51°21.013 2°58.792 60.9 14.7 55 13.2
2004-05-27 07:07:38 51°21.025 2°58.818 60.9 14.6 55 13.2
2004-05-27 07:07:44 51°21.039 2°58.85 61.2 14.6 55 13.2
2004-05-27 07:07:48 51°21.048 2°58.872 61.1 14.7 55 13.2
2004-05-27 07:07:53 51°21.059 2°58.899 60.8 14.7 56 13.2
2004-05-27 07:07:58 51°21.07 2°58.926 62 14.7 57 13.2
2004-05-27 07:08:04 51°21.083 2°58.96 63.1 14.7 57 13.1
2004-05-27 07:08:08 51°21.091 2°58.982 65.3 14.7 59 13.2
2004-05-27 07:08:13 51°21.1 2°59.01 66.1 14.6 62 13.1
2004-05-27 07:08:18 51°21.109 2°59.039 67.6 14.6 62 13
2004-05-27 07:08:22 51°21.116 2°59.062 68.2 14.7 62 13.1
2004-05-27 07:08:28 51°21.127 2°59.096 68.4 14.6 63 13.1
2004-05-27 07:08:33 51°21.136 2°59.125 68.5 14.7 62 13
2004-05-27 07:08:38 51°21.145 2°59.153 68.2 14.6 62 12.9
2004-05-27 07:08:43 51°21.155 2°59.182 68.2 14.6 62 13.1
2004-05-27 07:08:49 51°21.168 2°59.215 66.6 14.6 57 13.1
2004-05-27 07:08:53 51°21.177 2°59.236 64 14.7 56 13
2004-05-27 07:08:58 51°21.189 2°59.263 61.6 14.6 55 13
2004-05-27 07:09:02 51°21.198 2°59.283 59.6 14.7 53 13
2004-05-27 07:09:08 51°21.213 2°59.314 58.8 14.6 52 13
2004-05-27 07:09:13 51°21.226 2°59.34 58 14.7 52 13
2004-05-27 07:09:18 51°21.239 2°59.365 57.1 14.6 51 13
2004-05-27 07:09:24 51°21.255 2°59.395 56.3 14.7 50 13
2004-05-27 07:09:29 51°21.268 2°59.419 55.4 14.7 49 13
2004-05-27 07:09:33 51°21.279 2°59.439 54.4 14.7 49 13
2004-05-27 07:09:38 51°21.293 2°59.463 54.1 14.8 48 12.9
2004-05-27 07:09:43 51°21.306 2°59.487 53.6 14.8 48 13
2004-05-27 07:09:49 51°21.323 2°59.516 53.3 14.7 48 13.1
2004-05-27 07:09:53 51°21.334 2°59.535 53.2 14.7 48 13
2004-05-27 07:09:58 51°21.347 2°59.559 53 14.7 48 12.9
2004-05-27 07:10:04 51°21.364 2°59.589 53.1 14.7 48 13
2004-05-27 07:10:08 51°21.375 2°59.608 53.2 14.7 49 12.9
2004-05-27 07:10:13 51°21.388 2°59.633 53.7 14.7 48 12.9
2004-05-27 07:10:18 51°21.402 2°59.657 53.9 14.7 48 13
2004-05-27 07:10:22 51°21.413 2°59.676 53.5 14.8 48 12.9
2004-05-27 07:10:28 51°21.429 2°59.706 53.2 14.8 48 12.9
2004-05-27 07:10:32 51°21.44 2°59.725 53.2 14.8 48 13
2004-05-27 07:10:38 51°21.457 2°59.755 53.6 14.8 49 13
2004-05-27 07:10:43 51°21.47 2°59.779 53.5 14.8 48 13
2004-05-27 07:10:48 51°21.484 2°59.804 53.6 14.8 49 13
2004-05-27 07:10:52 51°21.495 2°59.823 53.8 14.8 48 12.9
2004-05-27 07:10:57 51°21.509 2°59.848 53.7 14.8 49 12.9
2004-05-27 07:11:01 51°21.52 2°59.868 53.7 14.8 48 12.9
2004-05-27 07:11:09 51°21.541 2°59.907 53.3 14.8 49 12.9
2004-05-27 07:11:12 51°21.549 2°59.922 53.8 14.8 49 12.9
2004-05-27 07:11:18 51°21.566 2°59.952 54 14.8 49 13
2004-05-27 07:11:22 51°21.576 2°59.971 54.1 14.8 49 13
2004-05-27 07:11:29 51°21.595 3°0.006 54.1 14.8 49 13
2004-05-27 07:11:33 51°21.606 3°0.025 53.9 14.8 49 12.9
2004-05-27 07:11:38 51°21.62 3°0.05 53.9 14.8 49 12.8
2004-05-27 07:11:44 51°21.636 3°0.08 54.2 14.7 49 12.8
2004-05-27 07:11:49 51°21.649 3°0.105 54.6 14.8 49 12.9
2004-05-27 07:11:53 51°21.66 3°0.125 54.5 14.8 49 12.9
2004-05-27 07:11:58 51°21.673 3°0.15 54.2 14.8 49 12.9
2004-05-27 07:12:04 51°21.69 3°0.179 54.2 14.8 49 12.9
2004-05-27 07:12:08 51°21.701 3°0.198 53.7 14.8 49 12.9
2004-05-27 07:12:13 51°21.714 3°0.223 53.6 14.8 49 12.9
2004-05-27 07:12:18 51°21.728 3°0.248 53.7 14.8 48 12.9
2004-05-27 07:12:24 51°21.744 3°0.278 54 14.8 49 12.9
2004-05-27 07:12:26 51°21.75 3°0.287 54.1 14.7 49 13
2004-05-27 07:12:33 51°21.768 3°0.322 53.7 14.7 49 12.7
2004-05-27 07:12:38 51°21.782 3°0.346 54.2 14.7 49 12.7
2004-05-27 07:12:44 51°21.798 3°0.376 54 14.7 48 12.7
2004-05-27 07:12:48 51°21.809 3°0.396 53.9 14.8 48 12.8
2004-05-27 07:12:54 51°21.825 3°0.425 53.9 14.8 49 12.9
2004-05-27 07:12:58 51°21.836 3°0.445 54 14.8 48 12.8
2004-05-27 07:13:02 51°21.847 3°0.464 53.9 14.8 48 12.6
2004-05-27 07:13:09 51°21.866 3°0.499 53.9 14.7 48 12.6
2004-05-27 07:13:12 51°21.873 3°0.514 54.2 14.7 50 12.8
2004-05-27 07:13:17 51°21.887 3°0.538 54.4 14.7 48 12.8
2004-05-27 07:13:24 51°21.906 3°0.573 53.7 14.7 49 12.9
2004-05-27 07:13:29 51°21.919 3°0.597 53.9 14.7 49 12.9
2004-05-27 07:13:32 51°21.927 3°0.612 53.7 14.7 49 12.8
2004-05-27 07:13:38 51°21.943 3°0.641 54.1 14.7 48 12.6
2004-05-27 07:13:42 51°21.954 3°0.661 54.4 14.7 50 12.7
2004-05-27 07:13:48 51°21.97 3°0.691 54.4 14.6 50 12.8
2004-05-27 07:13:53 51°21.983 3°0.715 54.3 14.6 49 12.6
2004-05-27 07:13:58 51°21.997 3°0.739 53.7 14.6 48 12.7
2004-05-27 07:14:01 51°22.005 3°0.754 53.7 14.7 49 12.7
2004-05-27 07:14:09 51°22.026 3°0.793 53.8 14.7 50 12.6
2004-05-27 07:14:12 51°22.034 3°0.809 54.5 14.7 48 12.7
2004-05-27 07:14:18 51°22.05 3°0.838 54.4 14.7 49 12.5
2004-05-27 07:14:22 51°22.061 3°0.857 54.4 14.6 49 12.4
2004-05-27 07:14:29 51°22.08 3°0.892 54.4 14.7 49 12.4
2004-05-27 07:14:33 51°22.09 3°0.911 54.2 14.7 49 12.6
2004-05-27 07:14:38 51°22.104 3°0.936 54.2 14.7 48 12.3
2004-05-27 07:14:42 51°22.114 3°0.956 54 14.7 49 12.3
2004-05-27 07:14:49 51°22.133 3°0.99 54.1 14.8 50 12.2
2004-05-27 07:14:52 51°22.14 3°1.005 54.5 14.8 50 12.4
2004-05-27 07:14:57 51°22.154 3°1.03 54.7 14.7 49 12.2
2004-05-27 07:15:04 51°22.172 3°1.065 54.9 14.7 50 12.2
2004-05-27 07:15:09 51°22.185 3°1.089 54.9 14.7 49 12.4
2004-05-27 07:15:13 51°22.196 3°1.11 54.4 14.7 50 12.5
2004-05-27 07:15:18 51°22.209 3°1.134 54.5 14.8 48 12.6
2004-05-27 07:15:23 51°22.223 3°1.159 54 14.8 50 12.9
2004-05-27 07:15:29 51°22.239 3°1.188 54.1 14.7 49 12.8
2004-05-27 07:15:33 51°22.249 3°1.208 54.4 14.6 49 12.7
2004-05-27 07:15:37 51°22.26 3°1.228 54.4 14.7 49 12.7
2004-05-27 07:15:44 51°22.279 3°1.262 54.1 14.7 49 12.8
2004-05-27 07:15:49 51°22.292 3°1.287 53.7 14.6 50 12.9
2004-05-27 07:15:52 51°22.301 3°1.301 54 14.6 49 12.7
2004-05-27 07:15:58 51°22.316 3°1.331 54.2 14.6 50 12.7
2004-05-27 07:16:04 51°22.332 3°1.361 54.4 14.7 50 12.6
2004-05-27 07:16:08 51°22.343 3°1.38 54.4 14.6 50 12.5
2004-05-27 07:16:12 51°22.353 3°1.4 54.8 14.6 50 12.5
2004-05-27 07:16:16 51°22.364 3°1.419 54.3 14.6 49 12.2
2004-05-27 07:16:24 51°22.385 3°1.459 54 14.6 49 12.2
2004-05-27 07:16:27 51°22.393 3°1.473 53.9 14.6 49 11.8
2004-05-27 07:16:33 51°22.409 3°1.503 54 14.6 50 11.6
2004-05-27 07:16:37 51°22.419 3°1.523 54.8 14.6 50 11.5
2004-05-27 07:16:44 51°22.438 3°1.557 54.3 14.6 49 11.7
2004-05-27 07:16:49 51°22.451 3°1.581 54.4 14.6 49 12.1
2004-05-27 07:16:53 51°22.462 3°1.601 54.1 14.7 49 11.9
2004-05-27 07:16:58 51°22.475 3°1.625 53.9 14.6 48 11.6
2004-05-27 07:17:03 51°22.488 3°1.649 53.8 14.7 49 11.4
2004-05-27 07:17:08 51°22.502 3°1.674 54.1 14.6 49 11.3
2004-05-27 07:17:13 51°22.515 3°1.698 53.8 14.5 49 11.6
2004-05-27 07:17:18 51°22.528 3°1.723 54.3 14.6 50 12
2004-05-27 07:17:21 51°22.536 3°1.737 55 14.6 50 12.4
2004-05-27 07:17:29 51°22.557 3°1.777 54.5 14.7 49 12.8
2004-05-27 07:17:33 51°22.568 3°1.797 54.1 14.7 49 13.1
2004-05-27 07:17:38 51°22.581 3°1.821 54.2 14.7 49 13
2004-05-27 07:17:42 51°22.591 3°1.841 54.3 14.7 50 13
2004-05-27 07:17:46 51°22.602 3°1.86 54.4 14.6 50 13
2004-05-27 07:17:52 51°22.618 3°1.89 54.3 14.6 49 13
2004-05-27 07:17:57 51°22.631 3°1.914 54.2 14.6 49 12.7
2004-05-27 07:18:03 51°22.647 3°1.943 54 14.6 48 12.5
2004-05-27 07:18:08 51°22.66 3°1.968 53.9 14.5 49 12.2
2004-05-27 07:18:13 51°22.673 3°1.992 54.2 14.5 49 11.5
2004-05-27 07:18:18 51°22.686 3°2.016 54.5 14.4 49 11
2004-05-27 07:18:24 51°22.702 3°2.045 54.3 14.4 48 10.7
2004-05-27 07:18:28 51°22.713 3°2.063 54.3 14.4 47 10.6
2004-05-27 07:18:33 51°22.727 3°2.085 52.5 14.3 44 10.8
2004-05-27 07:18:38 51°22.743 3°2.105 48.3 14.1 39 11
2004-05-27 07:18:43 51°22.759 3°2.123 44.2 14.2 38 11.7
2004-05-27 07:18:48 51°22.776 3°2.139 39.5 14.3 28 12.3
2004-05-27 07:18:53 51°22.794 3°2.152 33.8 14.2 24 12.6
2004-05-27 07:18:58 51°22.812 3°2.162 28.4 14.1 20 12.6
2004-05-27 07:19:03 51°22.831 3°2.169 22.6 13.9 15 12.7
2004-05-27 07:19:09 51°22.854 3°2.174 16.8 13.9 7 13
2004-05-27 07:19:13 51°22.869 3°2.175 11 13.9 4 13
2004-05-27 07:19:18 51°22.889 3°2.176 6.3 13.8 1 13
2004-05-27 07:19:23 51°22.908 3°2.175 3.8 13.8 359 12.9
2004-05-27 07:19:28 51°22.927 3°2.174 1.8 14 357 12.7
2004-05-27 07:19:32 51°22.943 3°2.172 0.6 14 357 12.7
2004-05-27 07:19:38 51°22.966 3°2.169 359.3 14.1 356 12.7
2004-05-27 07:19:42 51°22.981 3°2.168 359.2 14 357 12.5
2004-05-27 07:19:49 51°23.009 3°2.166 359.6 14 357 12.4
2004-05-27 07:19:53 51°23.024 3°2.165 0.7 14 358 12.4
2004-05-27 07:19:58 51°23.044 3°2.165 1.8 14.1 359 12.3
2004-05-27 07:20:03 51°23.064 3°2.165 2.9 14.2   12.1
2004-05-27 07:20:08 51°23.083 3°2.165 3.4 14.2 1 11.9
2004-05-27 07:20:13 51°23.103 3°2.166 4.1 14.2 2 12.1
2004-05-27 07:20:17 51°23.119 3°2.168 5.6 14.2 3 12.1
2004-05-27 07:20:24 51°23.146 3°2.171 6.6 14.2 4 12.3
2004-05-27 07:20:29 51°23.166 3°2.173 7.4 14.2 4 12.8
2004-05-27 07:20:33 51°23.182 3°2.176 7.9 14.2 5 12.9
2004-05-27 07:20:38 51°23.201 3°2.178 8.1 14.3 4 13.1
2004-05-27 07:20:42 51°23.217 3°2.18 8.2 14.3 5 13.3
2004-05-27 07:20:48 51°23.241 3°2.183 8.1 14.3 4 13.6
2004-05-27 07:20:53 51°23.26 3°2.186 7.8 14.2 4 14.3
2004-05-27 07:20:58 51°23.28 3°2.188 7.9 14.3 4 14.3
2004-05-27 07:21:04 51°23.304 3°2.19 7.9 14.3 4 14.2
2004-05-27 07:21:08 51°23.319 3°2.193 7.9 14.2 4 14
2004-05-27 07:21:12 51°23.335 3°2.194 7.9 14.2 4 14.1
2004-05-27 07:21:18 51°23.359 3°2.197 7.9 14.2 4 14.2
2004-05-27 07:21:23 51°23.379 3°2.199 7.8 14.2 4 14.2
2004-05-27 07:21:29 51°23.402 3°2.202 7.9 14.1 5 14.1
2004-05-27 07:21:33 51°23.418 3°2.204 8.2 14.1 4 14.3
2004-05-27 07:21:38 51°23.437 3°2.207 8.3 14.2 5 14.5
2004-05-27 07:21:43 51°23.457 3°2.209 8 14.3 4 14.6
2004-05-27 07:21:48 51°23.477 3°2.211 7.7 14.2 4 14.8
2004-05-27 07:21:53 51°23.496 3°2.214 8 14.2 5 14.6
2004-05-27 07:21:58 51°23.516 3°2.217 8.4 14.2 4 14.9
2004-05-27 07:22:03 51°23.535 3°2.219 8.4 14.2 5 15
2004-05-27 07:22:08 51°23.555 3°2.221 8 14.2 5 14.9
2004-05-27 07:22:13 51°23.575 3°2.224 7.8 14.2 4 14.9
2004-05-27 07:22:18 51°23.594 3°2.227 7.9 14.2 5 15.2
2004-05-27 07:22:24 51°23.618 3°2.229 8.7 14.3 5 15.2
2004-05-27 07:22:28 51°23.634 3°2.232 8.1 14.1 5 15.2
2004-05-27 07:22:32 51°23.649 3°2.234 8.3 14.1 5 15.2
2004-05-27 07:22:37 51°23.669 3°2.236 8.2 14.1 4 15.5
2004-05-27 07:22:43 51°23.692 3°2.239 7.8 14.1 5 15.6
2004-05-27 07:22:49 51°23.716 3°2.242 8.1 14.2 5 15.6
2004-05-27 07:22:53 51°23.731 3°2.245 8.2 14.2 5 15.9
2004-05-27 07:22:58 51°23.751 3°2.247 8.2 14.2 4 15.9
2004-05-27 07:23:03 51°23.771 3°2.249 8 14.2 4 16.2
2004-05-27 07:23:08 51°23.79 3°2.252 7.7 14.2 5 16.2
2004-05-27 07:23:13 51°23.81 3°2.254 7.9 14.2 4 16.2
2004-05-27 07:23:18 51°23.829 3°2.257 8.1 14.1 5 16.4
2004-05-27 07:23:21 51°23.841 3°2.259 8.7 14.2 5 16.5
2004-05-27 07:23:28 51°23.869 3°2.263 8.2 14.3 5 16.6
2004-05-27 07:23:33 51°23.889 3°2.265 8.1 14.3 5 16.8
2004-05-27 07:23:38 51°23.908 3°2.268 8.1 14.3 5 16.8
2004-05-27 07:23:42 51°23.924 3°2.271 8.2 14.4 5 16.9
2004-05-27 07:23:49 51°23.952 3°2.275 8.5 14.3 5 16.9
2004-05-27 07:23:53 51°23.967 3°2.277 8.4 14.3 5 17.1
2004-05-27 07:23:57 51°23.983 3°2.279 8.2 14.2 5 17.3
2004-05-27 07:24:04 51°24.011 3°2.283 8.2 14.3 5 17.3
2004-05-27 07:24:08 51°24.027 3°2.286 8.5 14.3 5 17.3
2004-05-27 07:24:13 51°24.046 3°2.288 8.4 14.3 5 17.4
2004-05-27 07:24:18 51°24.066 3°2.291 7.9 14.3 5 17.4
2004-05-27 07:24:23 51°24.086 3°2.293 7.9 14.3 4 17.3
2004-05-27 07:24:29 51°24.11 3°2.297 7.8 14.4 5 17.6
2004-05-27 07:24:33 51°24.125 3°2.299 8 14.3 5 17.7
2004-05-27 07:24:37 51°24.141 3°2.301 8.2 14.4 5 17.7
2004-05-27 07:24:44 51°24.169 3°2.305 8.3 14.3 5 17.8
2004-05-27 07:24:49 51°24.189 3°2.308 8.4 14.3 5 18.1
2004-05-27 07:24:52 51°24.2 3°2.31 8.4 14.3 5 18.1
2004-05-27 07:24:58 51°24.224 3°2.313 8.2 14.3 5 18.1
2004-05-27 07:25:02 51°24.24 3°2.316 8.2 14.2 5 18.2
2004-05-27 07:25:09 51°24.267 3°2.32 8.4 14.3 5 18.4
2004-05-27 07:25:13 51°24.283 3°2.322 8.5 14.2 5 18.5
2004-05-27 07:25:18 51°24.303 3°2.325 8.4 14.2 6 19
2004-05-27 07:25:24 51°24.326 3°2.328 8.5 14.2 5 18.9
2004-05-27 07:25:28 51°24.342 3°2.33 8.1 14.2 5 19.1
2004-05-27 07:25:32 51°24.358 3°2.333 8.1 14.2 5 19.2
2004-05-27 07:25:39 51°24.385 3°2.337 8.3 14.3 5 19.6
2004-05-27 07:25:44 51°24.405 3°2.339 8.5 14.2 5 19.7
2004-05-27 07:25:48 51°24.421 3°2.342 8 14.2 5 19.6
2004-05-27 07:25:53 51°24.44 3°2.345 8.2 14.2 5 19.8
2004-05-27 07:25:58 51°24.46 3°2.348 8.5 14.2 6 20.1
2004-05-27 07:26:01 51°24.471 3°2.349 8.6 14.1 5 19.9
2004-05-27 07:26:09 51°24.503 3°2.354 8.4 14.2 5 20
2004-05-27 07:26:14 51°24.522 3°2.356 8.2 14.1 4 20.1
2004-05-27 07:26:18 51°24.538 3°2.357 7.8 14.2 4 20.2
2004-05-27 07:26:22 51°24.554 3°2.359 7.6 14.2 4 20
2004-05-27 07:26:28 51°24.577 3°2.362 7.9 14.2 5 20.1
2004-05-27 07:26:32 51°24.593 3°2.364 8.6 14.1 5 20.1
2004-05-27 07:26:38 51°24.616 3°2.367 8.6 14.2 5 20.1
2004-05-27 07:26:44 51°24.64 3°2.37 8.4 14.2 4 19.8
2004-05-27 07:26:48 51°24.656 3°2.372 8 14.2 5 19.7
2004-05-27 07:26:53 51°24.675 3°2.375 8.4 14.3 4 19.7
2004-05-27 07:26:58 51°24.695 3°2.377 8.4 14.3 4 19.8
2004-05-27 07:27:04 51°24.718 3°2.383 8.6 14.2 6 19.7
2004-05-27 07:27:09 51°24.738 3°2.39 12.5 14.3 14 19.6
2004-05-27 07:27:13 51°24.753 3°2.397 16.6 14.2 16 19.4
2004-05-27 07:27:18 51°24.772 3°2.407 19.3 14.2 17 18.8
2004-05-27 07:27:23 51°24.79 3°2.418 21.6 14.2 19 18.6
2004-05-27 07:27:29 51°24.812 3°2.432 23.1 14.3 22 18.5
2004-05-27 07:27:33 51°24.827 3°2.443 26 14.2 26 18.2
2004-05-27 07:27:38 51°24.844 3°2.459 30.2 14.2 29 18.1
2004-05-27 07:27:44 51°24.864 3°2.479 33.3 14.3 31 18
2004-05-27 07:27:48 51°24.877 3°2.493 36 14.3 34 17.7
2004-05-27 07:27:54 51°24.897 3°2.516 38.5 14.4 35 17.3
2004-05-27 07:27:58 51°24.909 3°2.531 40.6 14.4 38 17.2
2004-05-27 07:28:02 51°24.922 3°2.547 41.7 14.4 38 16.8
2004-05-27 07:28:09 51°24.942 3°2.578 44.8 14.5 43 16.8
2004-05-27 07:28:12 51°24.951 3°2.593 48.1 14.5 47 16.5
2004-05-27 07:28:17 51°24.964 3°2.616 50.7 14.5 47 16.5
2004-05-27 07:28:24 51°24.982 3°2.65 53.5 14.4 50 16.2
2004-05-27 07:28:29 51°24.995 3°2.676 54.8 14.5 51 16.2
2004-05-27 07:28:32 51°25.002 3°2.691 55.8 14.5 51 16
2004-05-27 07:28:38 51°25.018 3°2.72 55.6 14.5 49 15.7
2004-05-27 07:28:42 51°25.028 3°2.74 55.4 14.5 51 15.7
2004-05-27 07:28:48 51°25.044 3°2.77 55.3 14.6 51 15.7
2004-05-27 07:28:53 51°25.057 3°2.794 55.1 14.6 49 15.8
2004-05-27 07:28:58 51°25.07 3°2.819 53.8 14.6 49 15.6
2004-05-27 07:29:01 51°25.078 3°2.834 54.2 14.5 49 15.5
2004-05-27 07:29:09 51°25.098 3°2.874 55.3 14.6 52 15.5
2004-05-27 07:29:13 51°25.109 3°2.894 56.3 14.7 51 15.5
2004-05-27 07:29:18 51°25.121 3°2.92 56.3 14.7 52 15.4
2004-05-27 07:29:24 51°25.136 3°2.95 57.1 14.6 53 15.4
2004-05-27 07:29:29 51°25.148 3°2.977 57.8 14.5 53 15.3
2004-05-27 07:29:33 51°25.157 3°2.998 58.6 14.7 55 15.2
2004-05-27 07:29:38 51°25.169 3°3.024 59.3 14.7 54 15
2004-05-27 07:29:44 51°25.181 3°3.058 60.4 14.7 59 15
2004-05-27 07:29:48 51°25.189 3°3.081 63.8 14.6 60 15.1
2004-05-27 07:29:53 51°25.198 3°3.11 66.1 14.6 64 15
2004-05-27 07:29:58 51°25.207 3°3.139 68.4 14.6 64 14.9
2004-05-27 07:30:04 51°25.216 3°3.175 69.9 14.5 67 14.8
2004-05-27 07:30:09 51°25.224 3°3.204 72.3 14.5 68 14.9
2004-05-27 07:30:13 51°25.229 3°3.229 74.3 14.5 71 14.9
2004-05-27 07:30:18 51°25.236 3°3.259 75.1 14.4 68 14.9
2004-05-27 07:30:24 51°25.244 3°3.295 76.3 14.3 72 14.8
2004-05-27 07:30:29 51°25.251 3°3.325 77.2 14.5 70 14.8
2004-05-27 07:30:32 51°25.254 3°3.344 76.4 14.4 72 14.6
2004-05-27 07:30:38 51°25.262 3°3.379 76.9 14.3 70 14.6
2004-05-27 07:30:44 51°25.269 3°3.416 77.3 14.3 73 14.6
2004-05-27 07:30:48 51°25.275 3°3.44 77.4 14.4 71 14.5
2004-05-27 07:30:53 51°25.281 3°3.471 76.7 14.4 72 14.6
2004-05-27 07:30:58 51°25.288 3°3.5 77.1 14.3 70 14.5
2004-05-27 07:31:03 51°25.294 3°3.53 76.6 14.2 71 14.4
2004-05-27 07:31:09 51°25.302 3°3.566 76.6 14.5 70 14.3
2004-05-27 07:31:13 51°25.308 3°3.591 76.3 14.5 70 14.2
2004-05-27 07:31:18 51°25.315 3°3.62 75.1 14.2 70 14.3
2004-05-27 07:31:23 51°25.322 3°3.65 75.4 14.2 71 14.1
2004-05-27 07:31:28 51°25.329 3°3.68 75.2 14.5 70 14
2004-05-27 07:31:33 51°25.336 3°3.71 75.4 14.4 69 14
2004-05-27 07:31:38 51°25.342 3°3.74 75.1 14.2 70 14
2004-05-27 07:31:44 51°25.351 3°3.775 76.1 14.3 69 13.8
2004-05-27 07:31:49 51°25.358 3°3.805 75.8 14.4 70 13.7
2004-05-27 07:31:52 51°25.362 3°3.823 75.7 14.5 69 13.7
2004-05-27 07:31:58 51°25.37 3°3.86 75.7 14.4 69 13.8
2004-05-27 07:32:02 51°25.376 3°3.883 75.3 14.4 69 13.7
2004-05-27 07:32:09 51°25.385 3°3.925 76.1 14.4 70 13.6
2004-05-27 07:32:13 51°25.391 3°3.95 76 14.5 70 13.6
2004-05-27 07:32:18 51°25.398 3°3.98 75.9 14.5 70 13.7
2004-05-27 07:32:24 51°25.406 3°4.016 75.7 14.5 69 13.5
2004-05-27 07:32:29 51°25.413 3°4.046 75.3 14.4 68 13.5
2004-05-27 07:32:32 51°25.418 3°4.064 74.7 14.3 69 13.3
2004-05-27 07:32:38 51°25.426 3°4.099 75.1 14.4 69 13.2
2004-05-27 07:32:42 51°25.432 3°4.124 75.3 14.5 69 13.5
2004-05-27 07:32:49 51°25.442 3°4.165 74.9 14.3 68 13.5
2004-05-27 07:32:53 51°25.448 3°4.189 74.7 14.3 69 13.4
2004-05-27 07:32:58 51°25.455 3°4.218 74.7 14.4 69 13.3
2004-05-27 07:33:04 51°25.464 3°4.254 74.7 14.4 68 13.3
2004-05-27 07:33:08 51°25.47 3°4.278 74.4 14.3 68 13.1
2004-05-27 07:33:14 51°25.478 3°4.314 74.4 14.4 70 13.2
2004-05-27 07:33:18 51°25.485 3°4.337 74.5 14.5 67 12.7
2004-05-27 07:33:24 51°25.494 3°4.373 74.3 14.5 69 13
2004-05-27 07:33:28 51°25.499 3°4.397 74.3 14.4 69 13.1
2004-05-27 07:33:33 51°25.507 3°4.427 74.6 14.5 69 12.9
2004-05-27 07:33:38 51°25.514 3°4.457 75.1 14.5 69 12.9
2004-05-27 07:33:44 51°25.523 3°4.493 74.3 14.4 67 12.7
2004-05-27 07:33:48 51°25.529 3°4.517 74.4 14.4 68 12.8
2004-05-27 07:33:53 51°25.536 3°4.546 74 14.5 68 12.7
2004-05-27 07:33:58 51°25.544 3°4.576 74.8 14.5 66 12.8
2004-05-27 07:34:04 51°25.552 3°4.612 74 14.5 69 12.9
2004-05-27 07:34:08 51°25.559 3°4.635 73.9 14.3 67 12.8
2004-05-27 07:34:14 51°25.568 3°4.671 74 14.4 69 12.6
2004-05-27 07:34:18 51°25.574 3°4.695 74 14.5 68 12.7
2004-05-27 07:34:24 51°25.583 3°4.73 73.6 14.4 67 12.9
2004-05-27 07:34:28 51°25.589 3°4.754 73.5 14.5 68 12.9
2004-05-27 07:34:33 51°25.597 3°4.784 73.9 14.6 68 12.5
2004-05-27 07:34:38 51°25.605 3°4.813 73.6 14.5 67 12.6
2004-05-27 07:34:42 51°25.611 3°4.837 73.2 14.4 67 12.9
2004-05-27 07:34:48 51°25.62 3°4.873 73.5 14.6 68 12.7
2004-05-27 07:34:53 51°25.629 3°4.902 73.5 14.6 66 12.6
2004-05-27 07:34:58 51°25.636 3°4.932 72.6 14.5 68 12.5
2004-05-27 07:35:04 51°25.646 3°4.968 73.3 14.5 66 12.5
2004-05-27 07:35:08 51°25.652 3°4.992 73.7 14.7 66 12.7
2004-05-27 07:35:12 51°25.659 3°5.016 72.9 14.6 67 12.7
2004-05-27 07:35:18 51°25.668 3°5.051 73 14.5 68 12.6
2004-05-27 07:35:23 51°25.676 3°5.081 72.9 14.5 68 12.4
2004-05-27 07:35:29 51°25.685 3°5.117 73.5 14.6 67 12.3
2004-05-27 07:35:33 51°25.691 3°5.141 73.8 14.6 67 12.2
2004-05-27 07:35:38 51°25.699 3°5.17 73.4 14.6 67 12.4
2004-05-27 07:35:43 51°25.707 3°5.2 72.9 14.4 66 12.4
2004-05-27 07:35:48 51°25.715 3°5.229 73.5 14.5 67 12.4
2004-05-27 07:35:54 51°25.724 3°5.265 73.6 14.6 67 12.1
2004-05-27 07:35:58 51°25.731 3°5.288 72.9 14.5 66 12.4
2004-05-27 07:36:03 51°25.739 3°5.318 72.5 14.4 67 12.2
2004-05-27 07:36:08 51°25.747 3°5.347 72.8 14.5 66 12.1
2004-05-27 07:36:13 51°25.755 3°5.377 72.5 14.5 67 12.1
2004-05-27 07:36:18 51°25.763 3°5.406 72.9 14.4 67 12
2004-05-27 07:36:24 51°25.772 3°5.441 73.5 14.4 68 12.4
2004-05-27 07:36:28 51°25.778 3°5.465 73.4 14.5 67 12
2004-05-27 07:36:34 51°25.788 3°5.5 73 14.3 67 12.1
2004-05-27 07:36:38 51°25.794 3°5.524 73.5 14.3 67 12.2
2004-05-27 07:36:44 51°25.803 3°5.559 74.5 14.4 69 11.8
2004-05-27 07:36:49 51°25.81 3°5.59 74.5 14.5 69 12
2004-05-27 07:36:53 51°25.817 3°5.613 74 14.4 66 11.9
2004-05-27 07:36:57 51°25.822 3°5.637 74.1 14.4 70 11.9
2004-05-27 07:37:04 51°25.833 3°5.678 74.1 14.3 67 11.9
2004-05-27 07:37:09 51°25.84 3°5.708 73.9 14.3 69 11.8
2004-05-27 07:37:13 51°25.847 3°5.731 74.2 14.4 65 11.8
2004-05-27 07:37:18 51°25.854 3°5.761 73.9 14.5 69 11.6
2004-05-27 07:37:23 51°25.863 3°5.79 73.3 14.5 65 11.6
2004-05-27 07:37:29 51°25.872 3°5.825 72.5 14.4 66 12
2004-05-27 07:37:33 51°25.879 3°5.849 72.4 14.4 66 11.6
2004-05-27 07:37:38 51°25.886 3°5.878 73.3 14.4 69 11.6
2004-05-27 07:37:44 51°25.895 3°5.914 73.7 14.5 65 11.7
2004-05-27 07:37:48 51°25.902 3°5.937 73.8 14.4 67 11.6
2004-05-27 07:37:53 51°25.909 3°5.967 74.1 14.4 68 11.7
2004-05-27 07:37:58 51°25.917 3°5.997 74.3 14.5 68 11.7
2004-05-27 07:38:03 51°25.925 3°6.026 74.1 14.5 67 11.5
2004-05-27 07:38:09 51°25.934 3°6.062 73.8 14.4 68 11.6
2004-05-27 07:38:13 51°25.94 3°6.085 74 14.4 66 11.7
2004-05-27 07:38:18 51°25.948 3°6.115 73.3 14.5 68 11.6
2004-05-27 07:38:24 51°25.958 3°6.15 73.9 14.5 66 11.7
2004-05-27 07:38:28 51°25.964 3°6.174 72.6 14.5 68 11.5
2004-05-27 07:38:33 51°25.972 3°6.203 72.9 14.5 66 11.6
2004-05-27 07:38:38 51°25.98 3°6.233 73.3 14.4 67 11.5
2004-05-27 07:38:42 51°25.986 3°6.256 73.9 14.4 67 11.5
2004-05-27 07:38:49 51°25.997 3°6.297 73.3 14.4 66 11.5
2004-05-27 07:38:53 51°26.003 3°6.321 73.6 14.5 67 11.6